createdAt,value
2023-03-19T09:48:45.914Z,11.50
2023-03-19T10:20:03.777Z,11.90
2023-03-19T11:23:03.776Z,11.50
2023-03-19T11:31:25.254Z,11.10
2023-03-19T11:34:27.925Z,10.80
2023-03-19T11:37:28.594Z,10.50
2023-03-19T11:40:37.479Z,10.00
2023-03-19T11:43:49.971Z,9.70
2023-03-19T11:46:44.798Z,9.60
2023-03-19T11:49:53.276Z,9.50
2023-03-19T11:52:53.392Z,9.50
2023-03-19T11:55:49.838Z,9.60
2023-03-19T11:59:08.915Z,9.70
2023-03-19T12:02:22.398Z,9.80
2023-03-19T12:05:21.060Z,9.90
2023-03-19T12:08:19.830Z,10.10
2023-03-19T12:11:18.721Z,10.40
2023-03-19T12:14:17.385Z,10.60
2023-03-19T12:17:19.352Z,10.60
2023-03-19T12:20:26.784Z,10.60
2023-03-19T12:23:28.816Z,10.40
2023-03-19T12:26:25.621Z,10.30
2023-03-19T12:29:24.324Z,10.10
2023-03-19T12:32:24.570Z,10.10
2023-03-19T12:35:16.546Z,10.10
2023-03-19T12:38:12.126Z,10.10
2023-03-19T12:41:05.229Z,10.10
2023-03-19T12:44:02.070Z,10.10
2023-03-19T12:46:59.346Z,10.10
2023-03-19T12:52:52.520Z,10.00
2023-03-19T13:04:15.717Z,10.10
2023-03-19T13:09:45.044Z,10.60
2023-03-19T13:12:39.792Z,10.80
2023-03-19T13:15:37.471Z,11.10
2023-03-19T13:22:19.645Z,11.60
2023-03-19T13:25:19.273Z,12.60
2023-03-19T13:53:25.391Z,12.60
2023-03-19T14:44:47.031Z,12.90
2023-03-19T15:39:31.902Z,11.30
2023-03-19T16:01:47.030Z,12.10
2023-03-19T16:11:30.819Z,12.10
2023-03-19T16:14:28.873Z,12.00
2023-03-19T16:17:20.498Z,11.90
2023-03-19T16:20:15.401Z,11.70
2023-03-19T16:23:04.202Z,11.60
2023-03-19T16:25:52.833Z,11.40
2023-03-19T16:28:45.411Z,11.40
2023-03-19T16:31:44.393Z,11.20
2023-03-19T16:34:42.468Z,11.20
2023-03-19T16:37:41.417Z,11.10
2023-03-19T16:40:44.958Z,11.00
2023-03-19T16:43:36.849Z,10.90
2023-03-19T16:46:27.176Z,10.80
2023-03-19T16:49:15.786Z,10.80
2023-03-19T16:52:06.261Z,10.70
2023-03-19T16:54:56.467Z,10.70
2023-03-19T16:57:45.787Z,10.60
2023-03-19T17:00:35.726Z,10.50
2023-03-19T17:03:26.130Z,10.50
2023-03-19T17:06:16.542Z,10.40
2023-03-19T17:09:07.212Z,10.40
2023-03-19T17:11:55.924Z,10.30
2023-03-19T17:14:44.968Z,10.30
2023-03-19T17:17:33.624Z,10.20
2023-03-19T17:20:24.382Z,10.10
2023-03-19T17:23:14.700Z,10.00
2023-03-19T17:26:14.490Z,10.00
2023-03-19T17:29:03.099Z,9.90
2023-03-19T17:31:52.253Z,9.80
2023-03-19T17:34:40.893Z,9.70
2023-03-19T17:37:32.173Z,9.60
2023-03-19T17:40:22.955Z,9.50
2023-03-19T17:43:13.603Z,9.50
2023-03-19T17:46:02.256Z,9.40
2023-03-19T17:48:52.126Z,9.30
2023-03-19T17:51:40.723Z,9.30
2023-03-19T17:54:29.356Z,9.20
2023-03-19T17:57:18.071Z,9.10
2023-03-19T18:00:09.927Z,9.10
2023-03-19T18:02:58.631Z,9.00
2023-03-19T18:05:47.529Z,9.00
2023-03-19T18:08:36.266Z,8.90
2023-03-19T18:11:24.882Z,8.80
2023-03-19T18:14:13.615Z,8.80
2023-03-19T18:17:04.048Z,8.80
2023-03-19T18:19:52.760Z,8.70
2023-03-19T18:22:41.424Z,8.70
2023-03-19T18:25:31.982Z,8.60
2023-03-19T18:28:20.616Z,8.60
2023-03-19T18:31:15.440Z,8.50
2023-03-19T18:34:09.008Z,8.50
2023-03-19T18:36:57.904Z,8.40
2023-03-19T18:39:46.596Z,8.40
2023-03-19T18:42:35.244Z,8.40
2023-03-19T18:45:24.410Z,8.40
2023-03-19T18:48:22.201Z,8.30
2023-03-19T18:51:13.092Z,8.30
2023-03-19T18:54:01.693Z,8.40
2023-03-19T18:56:54.807Z,8.40
2023-03-19T18:59:43.669Z,8.30
2023-03-19T19:02:34.483Z,8.30
2023-03-19T19:05:27.589Z,8.20
2023-03-19T19:08:20.354Z,8.20
2023-03-19T19:11:09.191Z,8.10
2023-03-19T19:14:00.091Z,8.20
2023-03-19T19:16:49.136Z,8.20
2023-03-19T19:19:37.974Z,8.20
2023-03-19T19:22:27.053Z,8.20
2023-03-19T19:25:22.202Z,8.20
2023-03-19T19:28:19.310Z,8.10
2023-03-19T19:31:07.964Z,8.10
2023-03-19T19:33:56.906Z,8.20
2023-03-19T19:36:45.554Z,8.20
2023-03-19T19:39:35.310Z,8.10
2023-03-19T19:42:25.399Z,8.10
2023-03-19T19:45:41.874Z,8.10
2023-03-19T19:48:31.715Z,8.10
2023-03-19T19:51:22.154Z,8.00
2023-03-19T19:54:10.792Z,8.00
2023-03-19T19:56:59.416Z,8.00
2023-03-19T19:59:50.003Z,8.00
2023-03-19T20:02:38.588Z,7.90
2023-03-19T20:05:29.487Z,7.90
2023-03-19T20:08:19.568Z,7.90
2023-03-19T20:11:16.922Z,7.80
2023-03-19T20:14:05.582Z,7.80
2023-03-19T20:16:56.753Z,7.80
2023-03-19T20:19:47.102Z,7.80
2023-03-19T20:22:35.721Z,7.80
2023-03-19T20:25:26.571Z,7.90
2023-03-19T20:28:22.408Z,7.90
2023-03-19T20:31:20.635Z,8.10
2023-03-19T20:34:20.379Z,8.10
2023-03-19T20:37:17.707Z,8.10
2023-03-19T20:40:07.465Z,8.10
2023-03-19T20:42:56.280Z,8.10
2023-03-19T20:45:45.214Z,8.10
2023-03-19T20:48:34.724Z,8.00
2023-03-19T20:51:31.554Z,7.90
2023-03-19T20:54:20.194Z,8.00
2023-03-19T20:57:14.561Z,8.00
2023-03-19T21:00:13.054Z,7.90
2023-03-19T21:03:03.127Z,8.00
2023-03-19T21:05:55.425Z,8.00
2023-03-19T21:08:48.556Z,8.00
2023-03-19T21:11:40.095Z,8.00
2023-03-19T21:14:28.705Z,8.00
2023-03-19T21:17:18.361Z,8.10
2023-03-19T21:20:08.066Z,8.10
2023-03-19T21:23:02.110Z,8.20
2023-03-19T21:25:52.289Z,8.30
2023-03-19T21:28:42.392Z,8.40
2023-03-19T21:31:31.077Z,8.40
2023-03-19T21:34:19.687Z,8.30
2023-03-19T21:37:08.266Z,8.30
2023-03-19T21:39:56.890Z,8.30
2023-03-19T21:42:49.892Z,8.30
2023-03-19T21:45:38.662Z,8.20
2023-03-19T21:48:30.465Z,8.20
2023-03-19T21:51:19.101Z,8.30
2023-03-19T21:54:07.712Z,8.40
2023-03-19T21:56:56.605Z,8.40
2023-03-19T21:59:47.204Z,8.40
2023-03-19T22:02:41.748Z,8.40
2023-03-19T22:05:30.790Z,8.40
2023-03-19T22:08:20.502Z,8.30
2023-03-19T22:11:17.273Z,8.30
2023-03-19T22:14:08.998Z,8.30
2023-03-19T22:16:59.394Z,8.30
2023-03-19T22:19:48.434Z,8.20
2023-03-19T22:22:37.028Z,8.10
2023-03-19T22:25:32.465Z,8.10
2023-03-19T22:28:28.137Z,8.00
2023-03-19T22:31:17.089Z,7.90
2023-03-19T22:34:07.132Z,7.80
2023-03-19T22:36:55.830Z,7.70
2023-03-19T22:39:44.481Z,7.60
2023-03-19T22:42:33.074Z,7.60
2023-03-19T22:45:30.716Z,7.50
2023-03-19T22:48:22.145Z,7.50
2023-03-19T22:51:15.734Z,7.40
2023-03-19T22:54:06.235Z,7.50
2023-03-19T22:56:54.890Z,7.50
2023-03-19T22:59:44.618Z,7.50
2023-03-19T23:02:33.210Z,7.40
2023-03-19T23:05:31.234Z,7.40
2023-03-19T23:08:22.124Z,7.40
2023-03-19T23:11:11.551Z,7.40
2023-03-19T23:14:00.221Z,7.50
2023-03-19T23:16:49.453Z,7.70
2023-03-19T23:19:39.545Z,7.80
2023-03-19T23:22:28.641Z,7.90
2023-03-19T23:25:20.826Z,8.00
2023-03-19T23:28:19.041Z,8.00
2023-03-19T23:31:12.705Z,8.10
2023-03-19T23:34:01.731Z,8.10
2023-03-19T23:36:51.233Z,8.10
2023-03-19T23:39:39.961Z,8.10
2023-03-19T23:42:32.900Z,8.10
2023-03-19T23:45:34.394Z,8.20
2023-03-19T23:48:26.902Z,8.30
2023-03-19T23:51:17.131Z,8.30
2023-03-19T23:54:10.543Z,8.30
2023-03-19T23:57:02.004Z,8.30
2023-03-19T23:59:53.527Z,8.20
